createdAt,value
2019-03-10T00:01:48.717Z,8.30
2019-03-10T00:04:39.820Z,8.20
2019-03-10T00:07:14.259Z,8.20
2019-03-10T00:09:43.763Z,8.20
2019-03-10T00:12:13.344Z,8.20
2019-03-10T00:14:42.816Z,8.20
2019-03-10T00:17:12.393Z,8.20
2019-03-10T00:19:45.876Z,8.20
2019-03-10T00:22:15.724Z,8.20
2019-03-10T00:24:45.418Z,8.20
2019-03-10T00:27:15.736Z,8.10
2019-03-10T00:29:45.546Z,8.20
2019-03-10T00:32:15.084Z,8.20
2019-03-10T00:34:45.474Z,8.20
2019-03-10T00:37:14.927Z,8.20
2019-03-10T00:40:30.334Z,8.20
2019-03-10T00:43:24.044Z,8.20
2019-03-10T00:46:28.960Z,8.10
2019-03-10T00:49:48.578Z,8.10
2019-03-10T00:52:28.049Z,8.10
2019-03-10T00:54:57.453Z,8.10
2019-03-10T00:57:27.852Z,8.10
2019-03-10T00:59:57.403Z,8.10
2019-03-10T01:02:26.787Z,8.10
2019-03-10T01:04:57.170Z,8.10
2019-03-10T01:07:26.676Z,8.10
2019-03-10T01:09:56.922Z,8.10
2019-03-10T01:12:26.548Z,8.10
2019-03-10T01:14:56.827Z,8.10
2019-03-10T01:17:27.073Z,8.10
2019-03-10T01:19:56.929Z,8.10
2019-03-10T01:22:27.720Z,8.10
2019-03-10T01:24:57.346Z,8.10
2019-03-10T01:27:27.650Z,8.10
2019-03-10T01:29:57.201Z,8.10
2019-03-10T01:32:58.629Z,8.10
2019-03-10T01:35:31.581Z,8.10
2019-03-10T01:38:00.901Z,8.10
2019-03-10T01:40:30.413Z,8.10
2019-03-10T01:42:59.889Z,8.10
2019-03-10T01:45:29.339Z,8.10
2019-03-10T01:47:59.372Z,8.10
2019-03-10T01:50:30.085Z,8.10
2019-03-10T01:52:59.504Z,8.10
2019-03-10T01:55:29.902Z,8.10
2019-03-10T01:57:59.436Z,8.10
2019-03-10T02:00:28.816Z,8.00
2019-03-10T02:02:58.361Z,8.10
2019-03-10T02:05:27.899Z,8.10
2019-03-10T02:07:57.331Z,8.10
2019-03-10T02:10:26.865Z,8.00
2019-03-10T02:12:57.257Z,8.00
2019-03-10T02:15:27.104Z,8.00
2019-03-10T02:17:56.599Z,8.00
2019-03-10T02:20:26.221Z,8.00
2019-03-10T02:22:56.474Z,8.00
2019-03-10T02:25:25.954Z,8.00
2019-03-10T02:27:55.174Z,8.00
2019-03-10T02:30:24.385Z,8.00
2019-03-10T02:32:53.689Z,8.00
2019-03-10T02:35:23.188Z,8.00
2019-03-10T02:37:52.810Z,7.90
2019-03-10T02:40:22.175Z,7.90
2019-03-10T02:42:52.562Z,7.90
2019-03-10T02:45:22.988Z,7.90
2019-03-10T02:47:52.439Z,7.80
2019-03-10T02:50:21.938Z,7.80
2019-03-10T02:52:51.369Z,7.70
2019-03-10T02:55:20.951Z,7.70
2019-03-10T02:57:50.423Z,7.70
2019-03-10T03:00:19.907Z,7.60
2019-03-10T03:02:49.385Z,7.60
2019-03-10T03:05:18.997Z,7.60
2019-03-10T03:07:48.493Z,7.50
2019-03-10T03:10:19.205Z,7.50
2019-03-10T03:12:49.957Z,7.50
2019-03-10T03:15:19.392Z,7.40
2019-03-10T03:17:48.855Z,7.40
2019-03-10T03:20:18.465Z,7.40
2019-03-10T03:22:47.898Z,7.40
2019-03-10T03:25:18.220Z,7.40
2019-03-10T03:27:47.838Z,7.30
2019-03-10T03:30:17.503Z,7.30
2019-03-10T03:32:48.061Z,7.30
2019-03-10T03:36:14.054Z,7.30
2019-03-10T03:38:47.015Z,7.30
2019-03-10T03:41:18.679Z,7.30
2019-03-10T03:43:53.323Z,7.20
2019-03-10T03:46:22.653Z,7.20
2019-03-10T03:48:55.006Z,7.20
2019-03-10T03:51:24.797Z,7.20
2019-03-10T03:53:54.526Z,7.10
2019-03-10T03:56:23.924Z,7.10
2019-03-10T03:58:53.619Z,7.10
2019-03-10T04:01:29.694Z,7.10
2019-03-10T04:03:59.031Z,7.10
2019-03-10T04:06:30.866Z,7.00
2019-03-10T04:09:00.566Z,7.00
2019-03-10T04:11:30.083Z,7.00
2019-03-10T04:13:59.576Z,7.00
2019-03-10T04:16:30.722Z,6.90
2019-03-10T04:19:00.217Z,6.90
2019-03-10T04:21:30.566Z,6.90
2019-03-10T04:23:59.990Z,6.90
2019-03-10T04:26:29.825Z,7.00
2019-03-10T04:29:00.312Z,7.00
2019-03-10T04:31:29.845Z,7.00
2019-03-10T04:33:59.250Z,7.00
2019-03-10T04:36:28.816Z,7.00
2019-03-10T04:38:58.235Z,7.00
2019-03-10T04:41:27.748Z,7.00
2019-03-10T04:43:57.340Z,7.00
2019-03-10T04:46:26.754Z,6.90
2019-03-10T04:48:56.280Z,6.90
2019-03-10T04:51:25.850Z,6.80
2019-03-10T04:53:56.185Z,6.80
2019-03-10T04:56:30.454Z,6.80
2019-03-10T04:59:01.001Z,6.80
2019-03-10T05:01:30.453Z,6.80
2019-03-10T05:03:59.877Z,6.70
2019-03-10T05:06:30.254Z,6.60
2019-03-10T05:08:59.698Z,6.60
2019-03-10T05:11:30.122Z,6.60
2019-03-10T05:13:59.742Z,6.60
2019-03-10T05:16:29.285Z,6.60
2019-03-10T05:19:04.361Z,6.60
2019-03-10T05:22:23.483Z,6.60
2019-03-10T05:25:06.015Z,6.60
2019-03-10T05:27:36.368Z,6.60
2019-03-10T05:30:06.274Z,6.60
2019-03-10T05:32:36.537Z,6.60
2019-03-10T05:35:06.735Z,6.60
2019-03-10T05:37:36.001Z,6.60
2019-03-10T05:40:05.885Z,6.60
2019-03-10T05:42:35.507Z,6.60
2019-03-10T05:45:05.958Z,6.60
2019-03-10T05:47:36.693Z,6.60
2019-03-10T05:50:06.102Z,6.60
2019-03-10T05:52:35.475Z,6.60
2019-03-10T05:55:05.861Z,6.60
2019-03-10T05:57:36.181Z,6.50
2019-03-10T06:00:06.757Z,6.50
2019-03-10T06:02:37.231Z,6.40
2019-03-10T06:05:06.731Z,6.40
2019-03-10T06:07:36.310Z,6.40
2019-03-10T06:10:05.987Z,6.40
2019-03-10T06:12:36.420Z,6.40
2019-03-10T06:15:06.862Z,6.50
2019-03-10T06:17:37.165Z,6.50
2019-03-10T06:20:06.631Z,6.50
2019-03-10T06:22:37.326Z,6.50
2019-03-10T06:25:06.995Z,6.50
2019-03-10T06:27:36.402Z,6.50
2019-03-10T06:30:06.227Z,6.50
2019-03-10T06:32:37.992Z,6.50
2019-03-10T06:35:07.335Z,6.50
2019-03-10T06:37:36.822Z,6.50
2019-03-10T06:40:06.624Z,6.60
2019-03-10T06:42:36.260Z,6.60
2019-03-10T06:45:06.018Z,6.60
2019-03-10T06:47:36.512Z,6.60
2019-03-10T06:50:07.222Z,6.60
2019-03-10T06:52:36.727Z,6.60
2019-03-10T06:55:06.518Z,6.60
2019-03-10T06:57:36.005Z,6.60
2019-03-10T07:00:07.146Z,6.60
2019-03-10T07:02:38.320Z,6.60
2019-03-10T07:05:08.916Z,6.60
2019-03-10T07:07:38.322Z,6.60
2019-03-10T07:10:09.887Z,6.60
2019-03-10T07:12:39.369Z,6.60
2019-03-10T07:15:09.589Z,6.60
2019-03-10T07:17:39.328Z,6.60
2019-03-10T07:20:11.543Z,6.70
2019-03-10T07:22:41.106Z,6.70
2019-03-10T07:25:10.647Z,6.70
2019-03-10T07:27:59.072Z,6.80
2019-03-10T07:30:50.268Z,6.80
2019-03-10T07:33:35.398Z,6.80
2019-03-10T07:36:20.701Z,6.80
2019-03-10T07:39:15.147Z,6.80
2019-03-10T07:41:53.449Z,6.80
2019-03-10T07:44:33.397Z,6.90
2019-03-10T07:47:19.941Z,6.90
2019-03-10T07:50:07.407Z,6.90
2019-03-10T07:53:02.877Z,7.00
2019-03-10T07:55:51.593Z,7.00
2019-03-10T07:58:40.042Z,7.00
2019-03-10T08:01:30.074Z,7.00
2019-03-10T08:04:09.819Z,7.00
2019-03-10T08:07:02.243Z,7.00
2019-03-10T08:09:41.835Z,7.10
2019-03-10T08:12:40.393Z,7.10
2019-03-10T08:15:18.132Z,7.20
2019-03-10T08:17:53.641Z,7.20
2019-03-10T08:20:42.119Z,7.20
2019-03-10T08:23:16.968Z,7.20
2019-03-10T08:26:01.275Z,7.10
2019-03-10T08:28:51.671Z,7.00
2019-03-10T08:31:33.570Z,7.00
2019-03-10T08:34:20.480Z,7.10
2019-03-10T08:37:04.190Z,7.10
2019-03-10T08:39:49.880Z,7.20
2019-03-10T08:42:24.768Z,7.30
2019-03-10T08:45:17.090Z,7.40
2019-03-10T08:48:03.005Z,7.40
2019-03-10T08:50:38.640Z,7.50
2019-03-10T09:49:21.229Z,10.20
2019-03-10T09:52:56.798Z,10.50
2019-03-10T09:56:28.896Z,10.70
2019-03-10T09:59:15.465Z,10.80
2019-03-10T10:02:14.948Z,10.90
2019-03-10T10:04:52.517Z,11.00
2019-03-10T10:07:50.958Z,11.10
2019-03-10T10:10:50.572Z,11.30
2019-03-10T10:13:42.274Z,11.40
2019-03-10T10:16:31.896Z,11.50
2019-03-10T10:19:22.970Z,11.50
2019-03-10T10:22:05.561Z,11.50
2019-03-10T10:25:06.738Z,11.40
2019-03-10T10:28:11.420Z,11.30
2019-03-10T10:31:01.333Z,11.30
2019-03-10T10:37:39.473Z,11.30
2019-03-10T10:40:41.077Z,11.40
2019-03-10T10:43:42.817Z,11.50
2019-03-10T10:46:37.546Z,11.60
2019-03-10T10:49:30.637Z,11.60
2019-03-10T10:52:17.797Z,11.60
2019-03-10T10:55:02.583Z,11.50
2019-03-10T10:57:45.485Z,11.30
2019-03-10T11:00:29.149Z,11.10
2019-03-10T11:03:29.071Z,10.90
2019-03-10T11:06:19.794Z,10.80
2019-03-10T11:09:02.940Z,10.70
2019-03-10T11:11:43.743Z,10.80
2019-03-10T11:14:44.407Z,11.00
2019-03-10T11:17:32.897Z,11.00
2019-03-10T11:20:11.942Z,11.00
2019-03-10T11:23:12.837Z,11.20
2019-03-10T11:25:54.340Z,11.30
2019-03-10T11:29:03.924Z,11.40
2019-03-10T11:31:55.044Z,11.30
2019-03-10T11:34:31.427Z,11.30
2019-03-10T11:37:25.886Z,11.40
2019-03-10T11:40:13.810Z,11.40
2019-03-10T11:43:08.602Z,11.30
2019-03-10T11:46:04.211Z,11.30
2019-03-10T11:49:10.538Z,11.20
2019-03-10T11:52:10.856Z,11.00
2019-03-10T11:55:17.049Z,10.80
2019-03-10T11:58:33.885Z,10.70
2019-03-10T12:01:42.452Z,10.60
2019-03-10T12:04:29.408Z,10.50
2019-03-10T12:07:12.010Z,10.40
2019-03-10T12:09:42.726Z,10.40
2019-03-10T12:12:14.836Z,10.40
2019-03-10T12:14:44.453Z,10.30
2019-03-10T12:17:14.644Z,10.30
2019-03-10T12:19:44.279Z,10.30
2019-03-10T12:22:20.302Z,10.20
2019-03-10T12:24:50.715Z,10.40
2019-03-10T12:27:20.227Z,10.40
2019-03-10T12:29:49.673Z,10.30
2019-03-10T12:32:19.166Z,10.20
2019-03-10T12:34:48.696Z,10.20
2019-03-10T12:37:18.570Z,10.20
2019-03-10T12:39:48.029Z,10.20
2019-03-10T12:42:17.680Z,10.10
2019-03-10T12:44:47.246Z,10.10
2019-03-10T12:47:16.488Z,10.00
2019-03-10T12:49:48.245Z,10.00
2019-03-10T12:52:18.599Z,9.90
2019-03-10T12:54:48.018Z,9.80
2019-03-10T12:57:18.293Z,9.70
2019-03-10T12:59:50.181Z,9.60
2019-03-10T13:02:19.720Z,9.50
2019-03-10T13:04:50.047Z,9.50
2019-03-10T13:07:20.472Z,9.40
2019-03-10T13:09:51.496Z,9.40
2019-03-10T13:12:21.826Z,9.30
2019-03-10T13:14:59.385Z,9.30
2019-03-10T13:17:24.549Z,9.30
2019-03-10T13:19:54.109Z,9.30
2019-03-10T13:22:24.435Z,9.20
2019-03-10T13:24:53.898Z,9.00
2019-03-10T13:27:24.247Z,8.90
2019-03-10T13:29:57.355Z,8.80
2019-03-10T13:32:27.788Z,8.80
2019-03-10T13:34:57.292Z,8.70
2019-03-10T13:37:27.184Z,8.60
2019-03-10T13:39:56.725Z,8.70
2019-03-10T13:42:29.047Z,8.60
2019-03-10T13:44:58.547Z,8.60
2019-03-10T13:47:28.900Z,8.50
2019-03-10T13:50:02.006Z,8.40
2019-03-10T13:52:32.025Z,8.40
2019-03-10T13:55:01.476Z,8.50
2019-03-10T13:57:31.124Z,8.40
2019-03-10T14:00:00.542Z,8.40
2019-03-10T14:02:32.280Z,8.40
2019-03-10T14:05:04.335Z,8.30
2019-03-10T14:07:37.941Z,8.30
2019-03-10T14:10:10.595Z,8.30
2019-03-10T14:12:40.540Z,8.30
2019-03-10T14:15:11.125Z,8.30
2019-03-10T14:17:44.617Z,8.20
2019-03-10T14:20:15.197Z,8.30
2019-03-10T14:22:44.550Z,8.10
2019-03-10T14:25:15.212Z,8.10
2019-03-10T14:27:50.075Z,8.10
2019-03-10T14:30:19.747Z,8.00
2019-03-10T14:32:49.146Z,7.90
2019-03-10T14:35:18.889Z,7.90
2019-03-10T14:37:50.319Z,7.70
2019-03-10T14:40:22.939Z,7.60
2019-03-10T14:42:52.417Z,7.50
2019-03-10T14:45:24.702Z,7.60
2019-03-10T14:49:01.157Z,7.50
2019-03-10T14:52:00.467Z,7.50
2019-03-10T14:54:34.073Z,7.40
2019-03-10T14:57:03.577Z,7.30
2019-03-10T14:59:36.239Z,7.20
2019-03-10T15:02:05.540Z,7.10
2019-03-10T15:04:35.944Z,7.10
2019-03-10T15:07:05.921Z,7.10
2019-03-10T15:09:37.261Z,7.10
2019-03-10T15:12:07.203Z,7.10
2019-03-10T15:14:36.830Z,7.10
2019-03-10T15:17:17.063Z,6.90
2019-03-10T15:19:47.911Z,6.80
2019-03-10T15:22:21.784Z,6.60
2019-03-10T15:24:56.496Z,6.50
2019-03-10T15:27:25.524Z,6.50
2019-03-10T15:29:55.834Z,6.50
2019-03-10T15:32:25.329Z,6.60
2019-03-10T15:34:54.837Z,6.60
2019-03-10T15:37:27.237Z,6.60
2019-03-10T15:39:58.773Z,6.60
2019-03-10T15:42:36.717Z,6.70
2019-03-10T15:45:10.084Z,6.80
2019-03-10T15:48:00.947Z,6.90
2019-03-10T15:50:34.603Z,6.80
2019-03-10T15:53:01.596Z,6.80
2019-03-10T15:55:31.242Z,6.80
2019-03-10T15:58:07.231Z,6.90
2019-03-10T16:00:38.664Z,7.00
2019-03-10T16:03:08.208Z,7.00
2019-03-10T16:05:39.410Z,7.10
2019-03-10T16:08:09.440Z,7.10
2019-03-10T16:10:38.879Z,7.10
2019-03-10T16:16:09.062Z,6.90
2019-03-10T16:18:40.798Z,6.90
2019-03-10T16:21:11.166Z,6.90
2019-03-10T16:23:56.905Z,6.90
2019-03-10T16:26:26.513Z,6.90
2019-03-10T16:28:58.455Z,6.90
2019-03-10T16:31:30.026Z,7.00
2019-03-10T16:34:03.135Z,7.00
2019-03-10T16:36:34.360Z,7.00
2019-03-10T16:39:08.253Z,7.20
2019-03-10T16:41:37.532Z,7.20
2019-03-10T16:44:17.586Z,7.20
2019-03-10T16:47:25.267Z,7.30
2019-03-10T16:50:06.433Z,7.20
2019-03-10T16:52:38.912Z,7.30
2019-03-10T16:55:10.892Z,7.30
2019-03-10T16:57:41.889Z,7.30
2019-03-10T17:00:38.513Z,7.30
2019-03-10T17:03:37.522Z,7.30
2019-03-10T17:09:33.749Z,7.40
2019-03-10T17:12:07.807Z,7.50
2019-03-10T17:14:41.227Z,7.50
2019-03-10T17:17:11.359Z,7.50
2019-03-10T17:19:40.887Z,7.40
2019-03-10T17:22:36.550Z,7.30
2019-03-10T17:25:11.096Z,7.30
2019-03-10T17:27:58.979Z,7.30
2019-03-10T17:30:31.890Z,7.30
2019-03-10T17:33:08.453Z,7.20
2019-03-10T17:35:43.913Z,7.10
2019-03-10T17:38:30.335Z,7.10
2019-03-10T17:41:00.115Z,7.00
2019-03-10T17:43:32.730Z,7.00
2019-03-10T17:46:08.643Z,6.90
2019-03-10T17:48:57.451Z,6.80
2019-03-10T17:51:34.987Z,6.80
2019-03-10T17:54:10.531Z,6.70
2019-03-10T17:56:45.688Z,6.60
2019-03-10T17:59:15.144Z,6.60
2019-03-10T18:01:47.086Z,6.60
2019-03-10T18:04:17.776Z,6.60
2019-03-10T18:06:53.724Z,6.60
2019-03-10T18:09:26.783Z,6.50
2019-03-10T18:12:02.366Z,6.50
2019-03-10T18:14:34.739Z,6.50
2019-03-10T18:17:22.111Z,6.50
2019-03-10T18:20:01.646Z,6.50
2019-03-10T18:22:33.263Z,6.60
2019-03-10T18:27:57.973Z,6.60
2019-03-10T18:30:48.403Z,6.60
2019-03-10T18:33:20.125Z,6.60
2019-03-10T18:35:56.901Z,6.30
2019-03-10T18:38:42.258Z,5.80
2019-03-10T18:41:24.023Z,5.50
2019-03-10T18:44:26.725Z,5.40
2019-03-10T18:47:16.763Z,5.40
2019-03-10T18:49:48.763Z,5.40
2019-03-10T18:52:24.063Z,5.50
2019-03-10T18:55:20.013Z,5.00
2019-03-10T18:57:50.572Z,4.60
2019-03-10T19:00:23.116Z,4.10
2019-03-10T19:02:52.768Z,4.00
2019-03-10T19:05:23.326Z,3.90
2019-03-10T19:07:58.978Z,3.90
2019-03-10T19:10:31.731Z,3.90
2019-03-10T19:13:20.148Z,3.90
2019-03-10T19:16:39.402Z,3.90
2019-03-10T19:19:08.766Z,4.00
2019-03-10T19:21:38.250Z,4.00
2019-03-10T19:24:10.224Z,4.00
2019-03-10T19:26:41.950Z,4.00
2019-03-10T19:29:12.107Z,4.00
2019-03-10T19:31:53.640Z,4.00
2019-03-10T19:35:05.138Z,4.00
2019-03-10T19:37:51.038Z,4.00
2019-03-10T19:44:11.896Z,4.00
2019-03-10T19:46:47.783Z,4.00
2019-03-10T19:49:20.160Z,3.90
2019-03-10T19:51:57.842Z,3.90
2019-03-10T19:54:36.686Z,3.90
2019-03-10T20:03:44.350Z,3.80
2019-03-10T20:06:38.171Z,3.80
2019-03-10T20:09:28.798Z,3.80
2019-03-10T20:12:41.823Z,3.80
2019-03-10T20:15:13.627Z,3.80
2019-03-10T20:18:05.793Z,3.80
2019-03-10T20:20:42.784Z,3.70
2019-03-10T20:23:15.668Z,3.80
2019-03-10T20:26:06.514Z,3.70
2019-03-10T20:28:46.892Z,3.70
2019-03-10T20:31:19.147Z,3.70
2019-03-10T20:33:54.437Z,3.70
2019-03-10T20:36:44.988Z,3.70
2019-03-10T20:39:15.927Z,3.70
2019-03-10T20:42:04.779Z,3.70
2019-03-10T20:48:07.702Z,3.80
2019-03-10T20:50:44.343Z,3.90
2019-03-10T20:53:47.913Z,3.90
2019-03-10T21:03:59.731Z,4.00
2019-03-10T21:07:00.703Z,4.00
2019-03-10T21:13:19.795Z,4.00
2019-03-10T21:16:01.120Z,4.00
2019-03-10T21:19:08.140Z,4.00
2019-03-10T21:22:30.742Z,4.10
2019-03-10T21:25:16.029Z,4.10
2019-03-10T21:27:56.900Z,4.00
2019-03-10T21:30:50.036Z,4.00
2019-03-10T21:33:38.602Z,4.00
2019-03-10T21:36:32.407Z,4.00
2019-03-10T21:39:12.948Z,4.00
2019-03-10T21:53:10.808Z,4.30
2019-03-10T21:56:37.108Z,4.40
2019-03-10T21:59:40.690Z,4.40
2019-03-10T22:02:10.487Z,4.50
2019-03-10T22:04:41.052Z,4.50
2019-03-10T22:07:15.790Z,4.60
2019-03-10T22:09:45.944Z,4.60
2019-03-10T22:12:17.328Z,4.60
2019-03-10T22:15:58.431Z,4.60
2019-03-10T22:17:59.473Z,4.60
2019-03-10T22:20:34.892Z,4.60
2019-03-10T22:24:05.553Z,4.70
2019-03-10T22:26:45.190Z,4.70
2019-03-10T22:29:17.117Z,4.70
2019-03-10T22:31:53.759Z,4.80
2019-03-10T22:38:04.041Z,4.90
2019-03-10T22:40:33.831Z,4.90
2019-03-10T22:43:13.807Z,5.00
2019-03-10T22:49:06.974Z,5.10
2019-03-10T22:52:29.892Z,5.10
2019-03-10T22:55:51.245Z,5.10
2019-03-10T22:58:36.248Z,5.10
2019-03-10T23:01:10.771Z,5.10
2019-03-10T23:04:16.121Z,5.10
2019-03-10T23:07:20.863Z,5.20
2019-03-10T23:10:32.555Z,5.20
2019-03-10T23:13:35.831Z,5.30
2019-03-10T23:16:30.070Z,5.40
2019-03-10T23:19:41.025Z,5.20
2019-03-10T23:22:23.662Z,5.00
2019-03-10T23:25:35.789Z,4.90
2019-03-10T23:35:51.213Z,4.70
2019-03-10T23:38:30.335Z,4.60
2019-03-10T23:41:23.270Z,4.50
2019-03-10T23:44:07.246Z,4.50
2019-03-10T23:47:20.657Z,4.40
2019-03-10T23:49:59.611Z,4.30
2019-03-10T23:52:54.858Z,4.30
2019-03-10T23:55:48.388Z,4.20
2019-03-10T23:59:18.171Z,4.10
